Time;durP1;ratioP1;P1;durP2;ratioP2;P2;SDS_P1;SDS_P2;PMS_P1;PMS_P2;Temp;Humidity;BMP_temperature;BMP_pressure;BME280_temperature;BME280_humidity;BME280_pressure;Samples;Min_cycle;Max_cycle;Signal;HPM_P1;HPM_P2
2022/03/28 00:01:29;;;;;;;;;46.25;37.00;;;;;15.13;44.19;101918.41;5058908;28;45548;-60
2022/03/28 00:03:54;;;;;;;;;47.25;40.25;;;;;15.10;44.40;101914.03;5040830;28;45509;-59
2022/03/28 00:06:20;;;;;;;;;44.00;34.00;;;;;15.03;44.59;101896.59;5058763;28;45467;-57
2022/03/28 00:08:45;;;;;;;;;33.50;30.00;;;;;15.01;45.68;101903.84;5058673;28;45500;-57
2022/03/28 00:11:10;;;;;;;;;50.25;38.50;;;;;14.89;45.83;101896.47;5057506;28;45525;-62
2022/03/28 00:13:37;;;;;;;;;40.50;35.00;;;;;14.87;46.25;101906.41;5058204;28;45495;-58
2022/03/28 00:16:03;;;;;;;;;39.50;33.25;;;;;14.87;46.25;101901.03;5058173;28;46768;-59
2022/03/28 00:18:29;;;;;;;;;43.25;36.00;;;;;14.84;46.07;101898.50;5059093;28;45266;-60
2022/03/28 00:20:55;;;;;;;;;44.00;38.75;;;;;14.77;46.64;101895.28;5058923;28;45476;-61
2022/03/28 00:23:21;;;;;;;;;39.50;34.00;;;;;14.79;46.27;101896.06;5039736;28;45241;-57
2022/03/28 00:25:46;;;;;;;;;40.50;33.00;;;;;14.68;46.95;101890.41;5040204;28;45446;-57
2022/03/28 00:28:13;;;;;;;;;43.50;37.00;;;;;14.62;46.29;101888.94;5057403;28;45339;-59
2022/03/28 00:30:38;;;;;;;;;37.50;32.75;;;;;14.58;46.17;101884.66;5057845;28;45465;-65
2022/03/28 00:33:04;;;;;;;;;39.25;35.25;;;;;14.62;46.39;101878.22;5057697;28;45486;-61
2022/03/28 00:35:30;;;;;;;;;42.75;36.25;;;;;14.63;46.73;101877.28;5052172;28;45435;-57
2022/03/28 00:37:56;;;;;;;;;40.50;37.00;;;;;14.66;46.58;101882.47;5058481;28;45325;-64
2022/03/28 00:40:22;;;;;;;;;47.75;35.75;;;;;14.64;46.76;101883.50;5057731;28;45504;-56
2022/03/28 00:42:48;;;;;;;;;39.50;35.00;;;;;14.64;46.52;101873.66;5039890;28;45477;-64
2022/03/28 00:45:15;;;;;;;;;36.25;32.50;;;;;14.53;46.52;101859.97;5057264;28;45304;-63
2022/03/28 00:47:40;;;;;;;;;40.50;35.50;;;;;14.60;47.12;101865.88;5058585;28;45240;-61
2022/03/28 00:50:06;;;;;;;;;41.00;34.50;;;;;14.58;46.65;101873.09;5057094;28;46446;-59
2022/03/28 00:52:33;;;;;;;;;41.50;36.00;;;;;14.57;47.24;101869.56;5051828;28;45383;-61
2022/03/28 00:55:01;;;;;;;;;37.00;32.75;;;;;14.52;46.70;101863.59;5058206;28;45623;-63
2022/03/28 00:57:29;;;;;;;;;46.25;37.00;;;;;14.42;47.40;101851.59;5052484;28;45327;-61
2022/03/28 00:59:54;;;;;;;;;43.00;37.75;;;;;14.56;47.17;101869.63;5026761;28;46091;-59
2022/03/28 01:02:20;;;;;;;;;41.00;37.25;;;;;14.47;47.36;101860.28;5055509;28;45547;-57
2022/03/28 01:04:45;;;;;;;;;49.75;36.25;;;;;14.50;46.92;101872.66;5058041;28;45309;-61
2022/03/28 01:07:12;;;;;;;;;35.50;33.25;;;;;14.42;47.52;101867.66;5023533;28;45460;-63
2022/03/28 01:09:38;;;;;;;;;33.75;29.50;;;;;14.42;47.76;101870.31;5053276;28;46376;-59
2022/03/28 01:12:04;;;;;;;;;47.50;37.75;;;;;14.35;48.12;101866.25;5058448;28;45498;-59
2022/03/28 01:14:31;;;;;;;;;49.25;35.00;;;;;14.25;47.84;101848.94;5057975;28;45390;-59
2022/03/28 01:19:41;;;;;;;;;41.75;33.75;;;;;14.24;48.55;101847.19;5055913;28;45694;-61
2022/03/28 01:22:06;;;;;;;;;44.00;35.25;;;;;14.18;48.87;101845.69;5051715;28;45549;-59
2022/03/28 01:24:31;;;;;;;;;47.50;38.00;;;;;14.22;49.02;101854.44;5058172;28;45296;-62
2022/03/28 01:26:57;;;;;;;;;43.00;37.75;;;;;14.12;49.71;101844.19;5057300;28;45522;-63
2022/03/28 01:29:23;;;;;;;;;44.75;37.50;;;;;14.04;49.62;101837.50;5056251;28;45978;-63
2022/03/28 01:31:48;;;;;;;;;45.00;37.75;;;;;14.16;49.87;101845.78;5057101;28;45888;-58
2022/03/28 01:34:21;;;;;;;;;43.00;36.25;;;;;14.11;50.34;101847.81;5049241;28;45307;-58
2022/03/28 01:36:47;;;;;;;;;50.00;36.75;;;;;14.09;50.08;101841.69;5055688;28;45391;-65
2022/03/28 01:39:22;;;;;;;;;44.00;38.50;;;;;14.06;50.16;101833.84;5055594;28;45484;-61
2022/03/28 01:41:47;;;;;;;;;54.50;37.75;;;;;14.05;50.44;101837.41;5056165;28;45383;-62
2022/03/28 01:44:13;;;;;;;;;45.75;30.00;;;;;14.00;50.95;101834.13;5057427;28;45490;-59
2022/03/28 01:46:46;;;;;;;;;56.75;41.25;;;;;13.94;51.30;101837.13;5057404;28;45510;-63
2022/03/28 01:49:18;;;;;;;;;47.75;41.00;;;;;13.82;51.33;101819.03;5038446;28;46727;-61
2022/03/28 01:51:44;;;;;;;;;47.50;39.75;;;;;13.87;51.42;101819.63;5056720;28;45501;-60
2022/03/28 01:54:10;;;;;;;;;51.75;38.00;;;;;13.94;51.61;101828.22;5054675;28;45343;-63
2022/03/28 01:56:39;;;;;;;;;47.25;41.00;;;;;13.95;51.17;101825.47;5057791;28;45973;-64
2022/03/28 01:59:07;;;;;;;;;49.25;37.00;;;;;13.93;51.53;101831.81;5053446;28;46198;-63
2022/03/28 02:01:33;;;;;;;;;54.25;40.75;;;;;13.89;51.73;101825.78;5056851;28;45332;-61
2022/03/28 02:03:59;;;;;;;;;52.75;38.25;;;;;13.80;51.30;101805.72;5056793;28;45348;-62
2022/03/28 02:06:25;;;;;;;;;46.25;38.00;;;;;13.91;51.06;101823.88;5046800;28;45348;-59
2022/03/28 02:08:50;;;;;;;;;55.75;45.00;;;;;13.93;51.48;101831.81;5042973;28;46285;-63
2022/03/28 02:11:16;;;;;;;;;47.25;40.25;;;;;13.88;51.94;101830.25;5055667;28;45318;-58
2022/03/28 02:13:42;;;;;;;;;51.00;39.25;;;;;13.82;51.49;101821.69;5056607;28;46702;-61
2022/03/28 02:16:08;;;;;;;;;53.25;41.25;;;;;13.78;51.78;101822.75;5056757;28;45441;-60
2022/03/28 02:18:33;;;;;;;;;49.25;39.50;;;;;13.79;51.67;101819.16;5056768;28;45416;-62
2022/03/28 02:20:59;;;;;;;;;47.25;38.75;;;;;13.74;51.95;101823.88;5033787;28;45432;-58
2022/03/28 02:23:25;;;;;;;;;51.25;41.00;;;;;13.67;53.13;101822.44;5057074;28;45301;-60
2022/03/28 02:25:50;;;;;;;;;53.75;37.25;;;;;13.53;54.66;101807.94;5045339;28;45472;-65
2022/03/28 02:28:16;;;;;;;;;50.25;42.00;;;;;13.50;53.91;101813.44;5036890;28;46905;-65
2022/03/28 02:30:42;;;;;;;;;44.00;37.50;;;;;13.48;55.11;101820.66;5055931;28;45362;-66
2022/03/28 02:33:08;;;;;;;;;54.50;41.25;;;;;13.37;55.53;101811.44;5042726;28;45547;-57
2022/03/28 02:35:34;;;;;;;;;51.00;41.00;;;;;13.36;55.91;101815.91;5056758;28;45625;-58
2022/03/28 02:38:01;;;;;;;;;57.25;45.50;;;;;13.34;56.00;101807.09;5045757;28;45975;-60
2022/03/28 02:40:32;;;;;;;;;47.75;40.00;;;;;13.31;56.18;101807.25;5025108;28;45334;-63
2022/03/28 02:42:59;;;;;;;;;56.50;42.25;;;;;13.33;55.76;101816.06;5055122;28;45421;-61
2022/03/28 02:45:31;;;;;;;;;51.25;40.75;;;;;13.39;56.19;101807.75;5020929;28;45698;-63
2022/03/28 02:47:59;;;;;;;;;44.25;40.25;;;;;13.34;56.60;101812.47;5055344;28;45701;-65
2022/03/28 02:50:25;;;;;;;;;53.00;41.50;;;;;13.27;56.63;101803.00;5057075;28;45458;-59
2022/03/28 02:52:50;;;;;;;;;59.75;42.00;;;;;13.19;56.92;101778.47;5056526;28;45513;-58
2022/03/28 02:55:17;;;;;;;;;54.25;42.25;;;;;13.22;56.78;101797.88;5038239;28;45621;-63
2022/03/28 02:57:42;;;;;;;;;52.00;40.50;;;;;13.25;56.81;101795.06;5036725;28;48000;-62
2022/03/28 03:00:08;;;;;;;;;54.75;45.00;;;;;13.23;56.76;101782.72;5056266;28;45280;-58
2022/03/28 03:02:42;;;;;;;;;50.75;41.25;;;;;13.30;55.74;101794.00;5055786;28;45222;-59
2022/03/28 03:05:08;;;;;;;;;57.75;42.00;;;;;13.31;55.80;101791.25;5056309;28;45622;-61
2022/03/28 03:07:34;;;;;;;;;50.75;39.00;;;;;13.24;56.23;101773.75;5030119;28;47952;-58
2022/03/28 03:10:00;;;;;;;;;52.75;41.00;;;;;13.27;56.89;101786.97;5051808;28;45435;-58
2022/03/28 03:12:25;;;;;;;;;52.25;41.50;;;;;13.23;56.52;101772.88;5055805;28;45448;-61
2022/03/28 03:14:52;;;;;;;;;57.25;45.75;;;;;13.24;56.28;101779.97;5055725;28;45497;-62
2022/03/28 03:17:18;;;;;;;;;56.00;44.00;;;;;13.22;57.38;101781.84;5049122;28;45593;-66
2022/03/28 03:19:44;;;;;;;;;52.50;41.75;;;;;13.18;57.17;101776.69;5054270;28;45729;-58
2022/03/28 03:22:11;;;;;;;;;57.50;42.50;;;;;13.16;57.05;101775.91;5053702;28;45485;-65
2022/03/28 03:24:37;;;;;;;;;59.00;46.75;;;;;13.11;57.43;101764.56;5055582;28;45465;-58
2022/03/28 03:27:02;;;;;;;;;53.25;42.75;;;;;13.05;57.65;101756.88;5037097;28;45253;-57
2022/03/28 03:29:29;;;;;;;;;53.50;43.75;;;;;13.02;57.36;101746.31;5055129;28;45288;-59
2022/03/28 03:31:54;;;;;;;;;55.75;44.00;;;;;13.17;57.71;101767.81;5037309;28;45525;-57
2022/03/28 03:34:20;;;;;;;;;56.50;45.00;;;;;13.03;57.57;101742.72;5055106;28;45382;-63
2022/03/28 03:36:46;;;;;;;;;58.25;44.50;;;;;13.13;58.30;101768.03;5055323;28;46031;-63
2022/03/28 03:39:12;;;;;;;;;53.25;43.00;;;;;13.13;57.99;101773.38;5053371;28;45696;-58
2022/03/28 03:41:38;;;;;;;;;59.25;46.00;;;;;13.04;58.66;101753.31;5055802;28;45504;-62
2022/03/28 03:44:03;;;;;;;;;61.50;47.50;;;;;13.00;59.20;101754.41;5055148;28;45427;-63
2022/03/28 03:46:29;;;;;;;;;62.50;46.75;;;;;12.98;59.63;101773.16;5054967;28;46162;-62
2022/03/28 03:48:54;;;;;;;;;57.75;42.75;;;;;12.92;59.87;101776.13;5054863;28;45509;-62
2022/03/28 03:51:20;;;;;;;;;57.75;46.50;;;;;12.91;59.59;101766.41;5037511;28;45414;-64
2022/03/28 03:53:45;;;;;;;;;60.25;46.50;;;;;12.94;59.42;101762.72;5055161;28;45367;-63
2022/03/28 03:56:11;;;;;;;;;57.00;47.00;;;;;12.93;59.39;101758.31;5053036;28;46379;-58
2022/03/28 03:58:36;;;;;;;;;60.00;47.50;;;;;12.93;59.35;101779.66;5035921;28;45459;-62
2022/03/28 04:01:02;;;;;;;;;60.75;43.50;;;;;12.88;61.06;101758.50;5053881;28;45691;-64
2022/03/28 04:03:27;;;;;;;;;54.75;46.00;;;;;12.84;59.79;101767.59;5036698;28;45570;-61
2022/03/28 04:05:53;;;;;;;;;60.00;48.50;;;;;12.87;60.20;101763.91;5036790;28;46955;-58
2022/03/28 04:08:18;;;;;;;;;60.25;43.75;;;;;12.76;61.12;101756.44;5041435;28;45828;-57
2022/03/28 04:10:44;;;;;;;;;58.50;47.75;;;;;12.75;60.20;101754.69;5036977;28;45882;-64
2022/03/28 04:13:10;;;;;;;;;56.25;46.25;;;;;12.82;59.83;101771.28;5026311;28;45519;-64
2022/03/28 04:15:36;;;;;;;;;56.25;44.75;;;;;12.81;60.26;101765.09;5050192;28;45632;-64
2022/03/28 04:18:01;;;;;;;;;54.75;43.00;;;;;12.79;60.24;101761.63;5054486;28;45448;-64
2022/03/28 04:20:28;;;;;;;;;57.50;44.50;;;;;12.71;60.41;101753.09;5055125;28;45624;-64
2022/03/28 04:22:53;;;;;;;;;56.50;44.00;;;;;12.67;59.94;101746.19;5034801;28;45571;-58
2022/03/28 04:25:19;;;;;;;;;64.00;45.25;;;;;12.75;60.69;101753.81;5055006;28;46047;-60
2022/03/28 04:27:44;;;;;;;;;58.00;46.25;;;;;12.70;60.84;101756.72;5053284;28;45809;-57
2022/03/28 04:30:12;;;;;;;;;54.00;42.25;;;;;12.75;60.45;101769.84;5023051;28;45761;-55
2022/03/28 04:32:38;;;;;;;;;59.50;45.75;;;;;12.71;61.56;101771.78;5052270;28;46688;-56
2022/03/28 04:35:05;;;;;;;;;56.50;45.50;;;;;12.55;62.45;101762.75;5058462;28;45463;-56
2022/03/28 04:37:39;;;;;;;;;60.00;45.25;;;;;12.49;63.20;101777.22;5058046;28;45467;-56
2022/03/28 04:40:08;;;;;;;;;59.25;45.25;;;;;12.40;63.47;101775.84;5036772;28;45262;-57
2022/03/28 04:42:34;;;;;;;;;62.50;50.00;;;;;12.38;63.04;101775.06;5052436;28;45620;-55
2022/03/28 04:44:59;;;;;;;;;64.25;48.00;;;;;12.33;62.79;101761.03;5058497;28;45813;-62
2022/03/28 04:47:25;;;;;;;;;56.00;42.50;;;;;12.38;62.40;101767.06;5058070;28;45401;-60
2022/03/28 04:49:50;;;;;;;;;55.75;44.50;;;;;12.44;61.88;101763.25;5058116;28;45488;-57
2022/03/28 04:52:16;;;;;;;;;48.50;41.25;;;;;12.34;62.33;101746.78;5058073;28;45419;-60
2022/03/28 04:54:41;;;;;;;;;61.75;47.50;;;;;12.36;62.57;101752.03;5058895;28;45561;-63
2022/03/28 04:57:07;;;;;;;;;61.50;47.00;;;;;12.27;63.67;101740.00;5038355;28;45407;-62
2022/03/28 04:59:33;;;;;;;;;61.50;42.75;;;;;12.27;63.55;101748.00;5029630;28;45496;-58
2022/03/28 05:01:59;;;;;;;;;56.75;46.75;;;;;12.30;63.16;101750.53;5057162;28;45343;-59
2022/03/28 05:04:25;;;;;;;;;52.50;42.25;;;;;12.31;62.09;101752.25;5058969;28;45354;-58
2022/03/28 05:06:51;;;;;;;;;63.50;47.50;;;;;12.28;62.56;101744.41;5057505;28;45577;-65
2022/03/28 05:09:17;;;;;;;;;63.50;49.75;;;;;12.38;61.85;101753.72;5058550;28;45216;-62
2022/03/28 05:11:43;;;;;;;;;62.25;46.50;;;;;12.37;61.52;101744.00;5057149;28;45568;-62
2022/03/28 05:14:09;;;;;;;;;54.50;41.50;;;;;12.28;61.42;101731.06;5040917;28;46154;-62
2022/03/28 05:16:35;;;;;;;;;60.75;50.00;;;;;12.32;61.89;101737.97;5031884;28;45418;-56
2022/03/28 05:19:00;;;;;;;;;59.00;46.00;;;;;12.38;61.59;101743.06;5038133;28;45349;-62
2022/03/28 05:21:26;;;;;;;;;55.50;46.50;;;;;12.30;61.41;101731.84;5040477;28;45565;-69
2022/03/28 05:23:51;;;;;;;;;61.75;47.75;;;;;12.35;62.19;101745.84;5056031;28;45936;-64
2022/03/28 05:26:17;;;;;;;;;66.00;47.75;;;;;12.35;61.38;101745.84;5040154;28;45771;-60
2022/03/28 05:28:42;;;;;;;;;59.25;47.50;;;;;12.38;62.10;101752.84;5041919;28;45387;-60
2022/03/28 05:31:08;;;;;;;;;58.50;43.75;;;;;12.32;61.70;101748.66;5049812;28;45387;-66
2022/03/28 05:33:33;;;;;;;;;62.00;46.75;;;;;12.33;61.86;101752.19;5039856;28;45767;-66
2022/03/28 05:35:59;;;;;;;;;59.25;48.50;;;;;12.29;62.56;101743.47;5058349;28;45419;-67
2022/03/28 05:38:25;;;;;;;;;57.00;47.50;;;;;12.30;61.85;101742.53;5051879;28;45349;-64
2022/03/28 05:40:50;;;;;;;;;67.50;49.50;;;;;12.32;62.50;101753.13;5056390;28;45633;-66
2022/03/28 05:43:16;;;;;;;;;54.00;45.75;;;;;12.31;62.49;101749.59;5052088;28;45331;-65
2022/03/28 05:45:42;;;;;;;;;62.75;45.75;;;;;12.33;62.02;101758.38;5056890;28;45519;-60
2022/03/28 05:48:08;;;;;;;;;62.00;47.25;;;;;12.32;61.96;101751.31;5057362;28;45327;-64
2022/03/28 05:50:33;;;;;;;;;55.50;45.25;;;;;12.31;62.49;101746.06;5019655;28;45505;-61
2022/03/28 05:52:59;;;;;;;;;63.50;48.25;;;;;12.34;61.77;101749.44;5037316;28;45722;-58
2022/03/28 05:55:24;;;;;;;;;63.25;49.25;;;;;12.35;62.04;101747.63;5027035;28;45519;-63
2022/03/28 05:57:50;;;;;;;;;64.25;50.50;;;;;12.36;62.48;101739.56;5055865;28;45457;-65
2022/03/28 06:00:16;;;;;;;;;64.75;49.50;;;;;12.29;63.15;101735.44;5058019;28;45578;-67
2022/03/28 06:02:42;;;;;;;;;53.50;43.75;;;;;12.20;63.60;101738.53;5057487;28;45957;-61
2022/03/28 06:05:08;;;;;;;;;68.75;50.50;;;;;12.23;63.33;101746.38;5056992;28;45448;-64
2022/03/28 06:07:35;;;;;;;;;64.25;48.25;;;;;12.21;63.10;101742.91;5039452;28;45428;-65
2022/03/28 06:10:00;;;;;;;;;60.25;49.50;;;;;12.27;62.14;101740.00;5057260;28;45437;-62
2022/03/28 06:12:26;;;;;;;;;61.00;48.50;;;;;12.30;63.45;101747.84;5038793;28;47035;-61
2022/03/28 06:14:52;;;;;;;;;62.75;48.00;;;;;12.18;63.47;101735.06;5055677;28;45352;-58
2022/03/28 06:17:25;;;;;;;;;60.75;48.75;;;;;12.20;63.82;101740.31;5057438;28;45454;-60
2022/03/28 06:19:51;;;;;;;;;53.00;44.00;;;;;12.29;62.88;101745.25;5057064;28;45529;-61
2022/03/28 06:22:16;;;;;;;;;54.25;42.50;;;;;12.29;63.39;101738.13;5056805;28;46642;-59
2022/03/28 06:24:42;;;;;;;;;63.75;50.00;;;;;12.34;63.70;101738.78;5056508;28;45455;-65
2022/03/28 06:27:08;;;;;;;;;64.25;50.25;;;;;12.33;63.10;101747.72;5038311;28;45445;-58
2022/03/28 06:29:33;;;;;;;;;64.50;50.25;;;;;12.29;63.58;101742.59;5056230;28;45580;-64
2022/03/28 06:31:59;;;;;;;;;63.50;49.00;;;;;12.23;63.38;101741.03;5053150;28;46498;-66
2022/03/28 06:34:24;;;;;;;;;65.75;47.25;;;;;12.28;63.75;101741.72;5053722;28;45449;-60
2022/03/28 06:36:50;;;;;;;;;64.25;47.75;;;;;12.30;62.89;101737.19;5055479;28;45498;-60
2022/03/28 06:39:16;;;;;;;;;71.50;51.75;;;;;12.28;63.36;101728.38;5043778;28;45513;-59
2022/03/28 06:41:41;;;;;;;;;60.75;48.75;;;;;12.26;63.39;101732.94;5035583;28;47440;-61
2022/03/28 06:44:13;;;;;;;;;60.25;47.75;;;;;12.29;63.42;101746.13;5056258;28;45383;-63
2022/03/28 06:46:40;;;;;;;;;65.25;51.00;;;;;12.24;62.83;101725.91;5056411;28;45549;-63
2022/03/28 06:49:06;;;;;;;;;67.75;49.75;;;;;12.28;63.52;101735.53;5054061;28;45458;-60
2022/03/28 06:51:33;;;;;;;;;60.75;44.75;;;;;12.31;63.64;101738.06;5037583;28;47699;-63
2022/03/28 06:53:58;;;;;;;;;68.75;55.00;;;;;12.25;64.15;101735.66;5073149;28;45308;-60
2022/03/28 06:56:34;;;;;;;;;59.25;46.75;;;;;12.28;63.43;101743.53;5062160;28;45387;-65
2022/03/28 06:59:00;;;;;;;;;66.00;53.00;;;;;12.24;63.82;101733.91;5054246;28;45363;-65
2022/03/28 07:01:25;;;;;;;;;56.75;43.75;;;;;12.16;64.10;101709.41;5056984;28;45523;-59
2022/03/28 07:03:51;;;;;;;;;69.75;49.75;;;;;12.29;63.45;101732.78;5055797;28;45812;-63
2022/03/28 07:06:17;;;;;;;;;64.00;51.25;;;;;12.31;63.20;101733.56;5037845;28;45418;-62
2022/03/28 07:08:42;;;;;;;;;67.25;51.00;;;;;12.35;63.03;101737.84;5033286;28;45534;-66
2022/03/28 07:11:07;;;;;;;;;62.50;49.00;;;;;12.39;63.00;101736.78;5059535;28;46170;-66
2022/03/28 07:13:33;;;;;;;;;66.75;48.25;;;;;12.34;63.81;101728.09;5035672;28;45447;-64
2022/03/28 07:15:59;;;;;;;;;67.75;49.50;;;;;12.23;63.49;101714.38;5042173;28;45460;-61
2022/03/28 07:18:24;;;;;;;;;64.00;49.75;;;;;12.32;64.06;101726.44;5046809;28;45619;-66
2022/03/28 07:20:50;;;;;;;;;65.75;53.50;;;;;12.33;63.52;101721.03;5041984;28;45428;-64
2022/03/28 07:23:17;;;;;;;;;72.75;52.50;;;;;12.37;63.34;101717.31;5055603;28;45414;-64
2022/03/28 07:25:43;;;;;;;;;74.50;54.75;;;;;12.36;63.58;101731.56;5055505;28;45560;-65
2022/03/28 07:28:10;;;;;;;;;67.25;49.75;;;;;12.37;62.63;101716.44;5038194;28;45370;-64
2022/03/28 07:30:37;;;;;;;;;69.50;52.75;;;;;12.32;62.58;101708.63;5055752;28;45364;-65
2022/03/28 07:33:03;;;;;;;;;68.25;53.00;;;;;12.43;62.95;101726.81;5054318;28;45417;-58
2022/03/28 07:35:32;;;;;;;;;63.75;49.75;;;;;12.48;62.47;101723.94;5054833;28;45529;-62
2022/03/28 07:37:59;;;;;;;;;69.00;49.25;;;;;12.56;62.62;101729.78;5056220;28;45567;-60
2022/03/28 07:40:25;;;;;;;;;65.75;53.25;;;;;12.66;62.19;101723.09;5055264;28;45967;-61
2022/03/28 07:42:51;;;;;;;;;81.75;57.50;;;;;12.69;61.59;101713.13;5055186;28;45712;-59
2022/03/28 07:45:17;;;;;;;;;68.00;49.75;;;;;12.74;62.01;101712.91;5055861;28;45232;-67
2022/03/28 07:47:43;;;;;;;;;65.50;49.75;;;;;12.79;62.19;101718.91;5056114;28;45172;-61
2022/03/28 07:50:10;;;;;;;;;69.25;52.75;;;;;12.80;61.78;101715.31;5055450;28;45351;-62
2022/03/28 07:52:36;;;;;;;;;61.75;50.75;;;;;12.87;61.81;101721.22;5054026;28;45518;-62
2022/03/28 07:55:03;;;;;;;;;60.00;44.75;;;;;12.84;61.95;101711.53;5048167;28;45362;-61
2022/03/28 07:57:32;;;;;;;;;62.50;48.75;;;;;12.79;61.78;101694.03;5045316;28;45319;-62
2022/03/28 07:59:58;;;;;;;;;69.50;54.25;;;;;12.95;61.29;101714.56;5044281;28;45618;-62
2022/03/28 08:02:24;;;;;;;;;69.00;53.50;;;;;12.98;61.19;101714.41;5055558;28;45366;-59
2022/03/28 08:04:50;;;;;;;;;69.25;51.25;;;;;13.03;61.39;101714.22;5056177;28;45802;-61
2022/03/28 08:07:16;;;;;;;;;66.00;51.50;;;;;13.04;60.87;101704.41;5039628;28;45502;-60
2022/03/28 08:09:42;;;;;;;;;65.00;51.00;;;;;13.13;60.69;101709.25;5058831;28;46129;-57
2022/03/28 08:12:09;;;;;;;;;69.25;52.75;;;;;13.17;60.49;101716.22;5057421;28;45443;-59
2022/03/28 08:14:36;;;;;;;;;70.50;52.50;;;;;13.23;60.23;101713.25;5058406;28;45418;-58
2022/03/28 08:17:03;;;;;;;;;68.25;54.50;;;;;13.30;60.59;101712.03;5041360;28;45350;-60
2022/03/28 08:19:29;;;;;;;;;72.25;53.25;;;;;13.29;60.55;101715.66;5038490;28;46258;-61
2022/03/28 08:21:56;;;;;;;;;69.50;51.75;;;;;13.26;60.74;101713.09;5038740;28;45975;-60
2022/03/28 08:24:21;;;;;;;;;68.75;52.50;;;;;13.35;59.90;101717.13;5053747;28;45687;-63
2022/03/28 08:26:49;;;;;;;;;67.50;52.25;;;;;13.41;59.81;101717.72;5058176;28;45426;-64
2022/03/28 08:29:15;;;;;;;;;62.00;51.00;;;;;13.54;59.06;101718.81;5057197;28;46362;-67
2022/03/28 08:31:41;;;;;;;;;73.50;56.50;;;;;13.64;59.56;101707.63;5057622;28;45245;-57
2022/03/28 08:34:07;;;;;;;;;73.25;55.00;;;;;13.70;59.02;101708.22;5058368;28;45387;-65
2022/03/28 08:36:33;;;;;;;;;67.25;51.00;;;;;13.77;58.36;101703.41;5038623;28;45596;-62
2022/03/28 08:38:59;;;;;;;;;67.00;50.75;;;;;13.85;58.48;101693.19;5057981;28;45433;-65
2022/03/28 08:41:27;;;;;;;;;72.50;55.50;;;;;13.89;58.22;101697.41;5040832;28;45498;-59
2022/03/28 08:43:53;;;;;;;;;69.25;54.50;;;;;14.03;58.14;101704.72;5060989;28;45352;-57
2022/03/28 08:46:19;;;;;;;;;68.25;56.00;;;;;14.09;57.96;101699.06;5055789;28;45392;-63
2022/03/28 08:48:45;;;;;;;;;70.50;54.00;;;;;14.18;57.33;101691.38;5057668;28;45915;-60
2022/03/28 08:51:13;;;;;;;;;74.25;56.00;;;;;14.35;57.34;101692.31;5053093;28;45284;-61
2022/03/28 08:53:39;;;;;;;;;71.00;55.00;;;;;14.55;56.79;101693.91;5038456;28;45416;-63
2022/03/28 08:56:08;;;;;;;;;70.25;52.75;;;;;14.74;55.68;101684.78;5057551;28;45469;-57
2022/03/28 08:58:33;;;;;;;;;70.50;51.50;;;;;14.94;55.86;101675.59;5038162;28;45989;-60
2022/03/28 09:01:00;;;;;;;;;69.25;55.50;;;;;15.18;55.48;101669.78;5057441;28;45284;-63
2022/03/28 09:03:55;;;;;;;;;64.00;50.25;;;;;15.45;54.93;101678.88;5057439;28;45339;-63
2022/03/28 09:06:31;;;;;;;;;75.25;55.75;;;;;15.44;53.77;101649.50;5023343;28;45369;-56
2022/03/28 09:09:24;;;;;;;;;69.75;53.50;;;;;15.82;53.09;101684.78;5045529;28;45438;-54
2022/03/28 09:11:53;;;;;;;;;69.25;52.25;;;;;15.99;52.30;101675.69;5039369;28;45430;-54
2022/03/28 09:14:30;;;;;;;;;73.00;53.00;;;;;16.16;52.61;101675.53;5056808;28;45452;-58
2022/03/28 09:16:58;;;;;;;;;70.00;51.00;;;;;16.40;51.80;101682.00;5049543;28;45422;-60
2022/03/28 09:19:24;;;;;;;;;60.00;49.00;;;;;16.49;50.99;101673.38;5037437;28;46472;-57
2022/03/28 09:21:50;;;;;;;;;70.75;54.25;;;;;16.71;51.03;101672.06;5037679;28;45258;-59
2022/03/28 09:24:16;;;;;;;;;68.50;51.25;;;;;16.97;50.25;101663.16;5037516;28;45372;-62
2022/03/28 09:26:42;;;;;;;;;63.00;50.25;;;;;17.29;49.56;101668.19;5038188;28;45185;-62
2022/03/28 09:29:07;;;;;;;;;62.75;50.50;;;;;17.55;48.63;101670.00;5020192;28;45932;-63
2022/03/28 09:31:34;;;;;;;;;62.25;49.50;;;;;17.83;46.64;101662.75;5037836;28;45344;-65
2022/03/28 09:34:11;;;;;;;;;62.25;48.75;;;;;18.08;47.12;101662.75;5019678;28;45461;-68
2022/03/28 09:36:38;;;;;;;;;63.25;45.50;;;;;18.34;45.32;101655.50;5037676;28;45439;-62
2022/03/28 09:39:05;;;;;;;;;67.00;50.00;;;;;18.58;45.68;101655.56;5019582;28;45480;-60
2022/03/28 09:41:32;;;;;;;;;68.50;52.25;;;;;18.81;45.35;101651.22;5037321;28;45296;-60
2022/03/28 09:43:58;;;;;;;;;66.75;51.25;;;;;18.96;44.76;101651.94;5037649;28;45186;-61
2022/03/28 09:46:28;;;;;;;;;61.00;48.50;;;;;18.98;44.11;101634.66;5037203;28;45465;-58
2022/03/28 09:48:54;;;;;;;;;54.50;45.00;;;;;19.11;43.60;101638.16;5018765;28;47385;-60
2022/03/28 09:51:21;;;;;;;;;60.25;48.50;;;;;19.24;43.60;101634.53;5037036;28;45298;-60
2022/03/28 09:53:47;;;;;;;;;59.50;47.75;;;;;19.36;42.83;101645.25;5037367;28;45399;-63
2022/03/28 09:56:13;;;;;;;;;66.25;52.00;;;;;19.40;43.40;101638.66;5037455;28;45326;-64
2022/03/28 09:58:46;;;;;;;;;63.25;47.75;;;;;19.44;43.52;101640.13;5019182;28;45544;-63
2022/03/28 10:01:29;;;;;;;;;66.25;52.00;;;;;19.43;42.73;101633.03;5036818;28;45355;-60
2022/03/28 10:04:05;;;;;;;;;66.75;52.25;;;;;19.38;43.17;101624.41;5036979;28;45400;-65
2022/03/28 10:06:31;;;;;;;;;63.00;49.50;;;;;19.43;42.82;101630.31;5037377;28;45352;-60
2022/03/28 10:08:58;;;;;;;;;61.00;50.00;;;;;19.43;42.49;101618.69;5036876;28;46298;-63
2022/03/28 10:11:25;;;;;;;;;60.25;45.75;;;;;19.42;42.51;101625.91;5036123;28;45511;-64
2022/03/28 10:13:51;;;;;;;;;58.50;47.50;;;;;19.41;41.95;101624.19;5036894;28;45396;-59
2022/03/28 10:16:17;;;;;;;;;52.00;43.75;;;;;19.31;41.23;101615.09;5048347;28;45367;-61
2022/03/28 10:18:47;;;;;;;;;50.75;40.25;;;;;19.32;41.28;101615.94;5057392;28;46519;-60
2022/03/28 10:21:22;;;;;;;;;51.25;43.50;;;;;19.36;41.05;101610.19;5057003;28;45464;-60
2022/03/28 10:24:00;;;;;;;;;56.50;43.25;;;;;19.38;40.86;101608.22;5039370;28;45278;-59
2022/03/28 10:26:33;;;;;;;;;53.00;41.50;;;;;19.28;41.15;101585.66;5055923;28;45420;-65
2022/03/28 10:29:10;;;;;;;;;50.00;39.50;;;;;19.38;40.98;101601.97;5056449;28;46138;-64
2022/03/28 10:31:55;;;;;;;;;50.75;41.50;;;;;19.45;40.70;101597.84;5056989;28;45423;-61
2022/03/28 10:34:43;;;;;;;;;53.67;45.33;;;;;19.49;39.39;101595.75;5056932;28;45416;-62
2022/03/28 10:37:37;;;;;;;;;53.75;41.75;;;;;19.56;39.64;101584.41;5055861;28;45419;-66
2022/03/28 10:40:29;;;;;;;;;57.00;42.67;;;;;19.62;39.54;101588.44;5056726;28;45774;-64
2022/03/28 10:43:14;;;;;;;;;48.33;39.33;;;;;19.63;38.31;101576.66;5056982;28;45481;-62
2022/03/28 10:45:49;;;;;;;;;52.00;42.33;;;;;19.72;38.40;101567.84;5038391;28;45419;-66
2022/03/28 10:48:17;;;;;;;;;49.67;38.00;;;;;19.82;39.22;101568.00;5041400;28;45387;-63
2022/03/28 10:50:48;;;;;;;;;51.67;39.00;;;;;19.91;37.77;101567.25;5037659;28;47557;-63
2022/03/28 10:53:30;;;;;;;;;44.67;34.33;;;;;20.03;37.26;101556.31;5056199;28;45329;-60
2022/03/28 10:56:01;;;;;;;;;41.67;37.00;;;;;20.11;36.65;101554.84;5056773;28;45236;-65
2022/03/28 10:58:36;;;;;;;;;28.67;27.00;;;;;20.13;35.40;101551.03;5056848;28;45505;-65
2022/03/28 11:01:13;;;;;;;;;32.67;27.67;;;;;20.23;34.29;101551.16;5038421;28;48507;-62
2022/03/28 11:03:46;;;;;;;;;42.33;34.33;;;;;20.28;35.02;101543.53;5056389;28;45270;-64
2022/03/28 11:06:13;;;;;;;;;35.67;31.67;;;;;20.28;33.94;101533.59;5038382;28;45443;-64
2022/03/28 11:08:41;;;;;;;;;38.67;32.33;;;;;20.34;33.72;101521.44;5056776;28;45339;-61
2022/03/28 11:11:17;;;;;;;;;37.33;33.67;;;;;20.42;33.50;101524.38;5054935;28;45382;-63
2022/03/28 11:13:43;;;;;;;;;36.00;33.33;;;;;20.51;33.55;101529.03;5056042;28;45279;-67